Time;durP1;ratioP1;P1;durP2;ratioP2;P2;SDS_P1;SDS_P2;PMS_P1;PMS_P2;Temp;Humidity;BMP_temperature;BMP_pressure;BME280_temperature;BME280_humidity;BME280_pressure;Samples;Min_cycle;Max_cycle;Signal;HPM_P1;HPM_P2
2023/06/09 00:03:21;;;;;;;;;;;21.90;57.00;;;;;;10333162;28;91198;-70
2023/06/09 00:08:23;;;;;;;;;;;21.90;57.00;;;;;;10332318;28;89048;-69
2023/06/09 00:13:25;;;;;;;;;;;21.80;56.90;;;;;;10316294;28;89596;-69
2023/06/09 00:18:27;;;;;;;;;;;21.80;56.90;;;;;;10314987;28;90103;-69
2023/06/09 00:23:29;;;;;;;;;;;21.80;56.90;;;;;;10332639;28;90065;-70
2023/06/09 00:28:31;;;;;;;;;;;21.80;56.80;;;;;;10331903;28;91631;-69
2023/06/09 00:33:32;;;;;;;;;;;21.80;56.90;;;;;;10313503;28;89562;-70
2023/06/09 00:38:35;;;;;;;;;;;21.80;56.80;;;;;;10332682;28;88278;-70
2023/06/09 00:43:36;;;;;;;;;;;21.80;56.70;;;;;;10314398;28;90075;-70
2023/06/09 00:48:38;;;;;;;;;;;21.80;56.80;;;;;;10330927;28;88101;-70
2023/06/09 00:53:40;;;;;;;;;;;21.80;56.70;;;;;;10331943;28;89120;-69
2023/06/09 00:58:42;;;;;;;;;;;21.80;56.70;;;;;;10333731;28;89082;-69
2023/06/09 01:03:46;;;;;;;;;;;21.80;56.70;;;;;;10321507;28;89302;-70
2023/06/09 01:09:01;;;;;;;;;;;21.80;56.60;;;;;;10320677;28;88163;-69
2023/06/09 01:14:13;;;;;;;;;;;21.80;56.60;;;;;;10320239;28;90038;-70
2023/06/09 01:19:24;;;;;;;;;;;21.80;56.60;;;;;;10337562;28;90733;-69
2023/06/09 01:24:46;;;;;;;;;;;21.80;56.50;;;;;;10338010;28;90415;-69
2023/06/09 01:29:51;;;;;;;;;;;21.80;56.50;;;;;;10319595;28;89920;-70
2023/06/09 01:34:54;;;;;;;;;;;21.80;56.40;;;;;;10319641;28;88246;-69
2023/06/09 01:39:56;;;;;;;;;;;21.80;56.30;;;;;;10337921;28;89189;-70
2023/06/09 01:44:57;;;;;;;;;;;21.80;56.30;;;;;;10336099;28;89067;-70
2023/06/09 01:50:08;;;;;;;;;;;21.80;56.20;;;;;;10335501;28;90396;-70
2023/06/09 01:55:17;;;;;;;;;;;21.80;56.20;;;;;;10336927;28;88346;-70
2023/06/09 02:00:20;;;;;;;;;;;21.80;56.30;;;;;;10336085;28;89216;-70
2023/06/09 02:05:23;;;;;;;;;;;21.80;56.20;;;;;;10335660;28;90129;-70
2023/06/09 02:10:25;;;;;;;;;;;21.80;56.20;;;;;;10334556;28;90726;-70
2023/06/09 02:15:26;;;;;;;;;;;21.80;56.20;;;;;;10336031;28;89231;-69
2023/06/09 02:20:28;;;;;;;;;;;21.80;56.10;;;;;;10334425;28;89243;-70
2023/06/09 02:25:32;;;;;;;;;;;21.80;56.10;;;;;;10336027;28;89456;-70
2023/06/09 02:30:33;;;;;;;;;;;21.70;56.00;;;;;;10336123;28;89229;-70
2023/06/09 02:35:35;;;;;;;;;;;21.80;56.10;;;;;;10335177;28;90055;-69
2023/06/09 02:40:41;;;;;;;;;;;21.70;56.10;;;;;;10335788;28;90066;-70
2023/06/09 02:45:43;;;;;;;;;;;21.70;56.00;;;;;;10317327;28;88678;-70
2023/06/09 02:50:45;;;;;;;;;;;21.70;56.10;;;;;;10334408;28;89533;-70
2023/06/09 02:55:47;;;;;;;;;;;21.70;56.00;;;;;;10334372;28;89237;-70
2023/06/09 03:00:49;;;;;;;;;;;21.70;55.90;;;;;;10332990;28;89841;-69
2023/06/09 03:05:52;;;;;;;;;;;21.70;55.90;;;;;;10335201;28;88702;-69
2023/06/09 03:10:54;;;;;;;;;;;21.70;55.90;;;;;;10316594;28;89453;-70
2023/06/09 03:15:57;;;;;;;;;;;21.70;55.90;;;;;;10334557;28;89115;-69
2023/06/09 03:21:04;;;;;;;;;;;21.70;55.80;;;;;;10314529;28;90108;-69
2023/06/09 03:26:07;;;;;;;;;;;21.70;55.90;;;;;;10334861;28;89666;-69
2023/06/09 03:31:09;;;;;;;;;;;21.70;55.90;;;;;;10334121;28;90229;-69
2023/06/09 03:36:11;;;;;;;;;;;21.70;55.90;;;;;;10335453;28;88342;-69
2023/06/09 03:41:13;;;;;;;;;;;21.70;55.90;;;;;;10315882;28;90067;-70
2023/06/09 04:18:37;;;;;;;;;;;21.70;55.80;;;;;;10288126;28;88199;-69
2023/06/09 04:23:40;;;;;;;;;;;21.60;55.70;;;;;;10331786;28;89647;-70
2023/06/09 04:28:42;;;;;;;;;;;21.60;55.70;;;;;;10331783;28;89211;-70
2023/06/09 04:33:45;;;;;;;;;;;21.60;55.70;;;;;;10335442;28;89326;-69
2023/06/09 04:38:48;;;;;;;;;;;21.60;55.80;;;;;;10321660;28;89725;-70
2023/06/09 04:43:53;;;;;;;;;;;21.60;55.70;;;;;;10338247;28;89851;-69
2023/06/09 04:48:55;;;;;;;;;;;21.60;55.70;;;;;;10800788;22;91417;-70
2023/06/09 04:53:58;;;;;;;;;;;21.60;55.80;;;;;;10376678;28;90549;-70
2023/06/09 04:59:00;;;;;;;;;;;21.60;55.70;;;;;;10381136;28;88165;-70
2023/06/09 05:04:02;;;;;;;;;;;21.60;55.70;;;;;;10356439;28;89644;-70
2023/06/09 05:09:04;;;;;;;;;;;21.60;55.90;;;;;;10395806;28;90059;-70
2023/06/09 05:14:06;;;;;;;;;;;21.50;55.90;;;;;;10358448;28;90316;-70
2023/06/09 05:19:07;;;;;;;;;;;21.60;56.10;;;;;;10388434;28;89521;-70
2023/06/09 05:24:10;;;;;;;;;;;21.60;56.20;;;;;;10383806;28;89432;-70
2023/06/09 05:29:12;;;;;;;;;;;21.60;56.20;;;;;;10416511;28;88885;-70
2023/06/09 05:34:13;;;;;;;;;;;21.60;56.30;;;;;;10385547;28;90185;-70
2023/06/09 05:39:15;;;;;;;;;;;21.60;56.40;;;;;;10372934;28;90759;-70
2023/06/09 05:44:19;;;;;;;;;;;21.60;56.40;;;;;;10378379;28;89330;-69
2023/06/09 05:49:20;;;;;;;;;;;21.60;56.60;;;;;;10372953;28;90056;-68
2023/06/09 05:54:22;;;;;;;;;;;21.70;57.90;;;;;;10377218;28;90033;-68
2023/06/09 05:59:24;;;;;;;;;;;21.70;58.00;;;;;;10376812;28;89187;-69
2023/06/09 06:04:26;;;;;;;;;;;21.70;59.20;;;;;;10374827;28;90383;-68
2023/06/09 06:09:28;;;;;;;;;;;21.80;58.50;;;;;;10377446;28;90054;-71
2023/06/09 06:14:29;;;;;;;;;;;21.90;58.30;;;;;;10377061;28;88317;-68
2023/06/09 06:19:31;;;;;;;;;;;21.90;58.30;;;;;;10375614;28;88995;-70
2023/06/09 06:24:33;;;;;;;;;;;21.90;58.10;;;;;;10376438;28;90164;-69
2023/06/09 06:29:38;;;;;;;;;;;22.00;57.90;;;;;;10375900;28;90953;-69
2023/06/09 06:34:41;;;;;;;;;;;22.00;57.80;;;;;;10375371;28;89613;-69
2023/06/09 06:39:42;;;;;;;;;;;22.00;57.80;;;;;;10376627;28;88253;-69
2023/06/09 06:44:44;;;;;;;;;;;22.10;57.90;;;;;;10375375;28;89098;-69
2023/06/09 06:49:46;;;;;;;;;;;22.10;57.80;;;;;;10375204;28;90044;-69
2023/06/09 06:54:48;;;;;;;;;;;22.10;57.80;;;;;;10374521;28;88922;-69
2023/06/09 06:59:50;;;;;;;;;;;22.20;57.70;;;;;;10374110;28;89097;-69
2023/06/09 07:04:52;;;;;;;;;;;22.20;57.60;;;;;;10376344;28;89336;-68
2023/06/09 07:09:54;;;;;;;;;;;22.20;57.50;;;;;;10375399;28;88959;-69
2023/06/09 07:14:56;;;;;;;;;;;22.30;57.30;;;;;;10375456;28;89231;-70
2023/06/09 07:19:58;;;;;;;;;;;22.30;57.10;;;;;;10373261;28;89825;-69
2023/06/09 07:25:00;;;;;;;;;;;22.40;58.10;;;;;;10374451;28;89161;-71
2023/06/09 07:30:02;;;;;;;;;;;22.40;57.00;;;;;;10373491;28;88362;-69
2023/06/09 07:35:04;;;;;;;;;;;22.40;57.10;;;;;;10374197;28;89427;-70
2023/06/09 07:40:06;;;;;;;;;;;22.30;57.20;;;;;;10374099;28;89142;-70
2023/06/09 07:45:20;;;;;;;;;;;22.30;57.20;;;;;;10375468;28;89237;-69
2023/06/09 07:50:22;;;;;;;;;;;22.30;57.30;;;;;;10369785;28;94506;-69
2023/06/09 07:55:25;;;;;;;;;;;22.20;57.40;;;;;;10370893;28;93774;-69
2023/06/09 08:00:27;;;;;;;;;;;22.20;57.40;;;;;;10369814;28;94621;-69
2023/06/09 08:05:30;;;;;;;;;;;22.20;57.40;;;;;;10370168;28;94470;-68
2023/06/09 08:10:35;;;;;;;;;;;22.30;57.30;;;;;;10371102;28;95852;-68
2023/06/09 08:15:37;;;;;;;;;;;22.30;57.20;;;;;;10376818;28;93501;-69
2023/06/09 08:20:40;;;;;;;;;;;22.30;57.20;;;;;;10376091;28;94473;-69
2023/06/09 08:25:42;;;;;;;;;;;22.30;57.30;;;;;;10376723;28;94804;-70
2023/06/09 08:30:44;;;;;;;;;;;22.30;57.40;;;;;;10375824;28;94625;-69
2023/06/09 08:35:45;;;;;;;;;;;22.20;57.40;;;;;;10374397;28;93646;-69
2023/06/09 08:40:48;;;;;;;;;;;22.30;57.20;;;;;;10373665;28;93611;-70
2023/06/09 08:45:51;;;;;;;;;;;22.30;57.10;;;;;;10377270;28;93818;-69
2023/06/09 08:50:54;;;;;;;;;;;22.40;57.10;;;;;;10374953;28;94287;-69
2023/06/09 08:55:58;;;;;;;;;;;22.40;58.00;;;;;;10373622;28;93211;-69
2023/06/09 09:01:00;;;;;;;;;;;22.40;57.00;;;;;;10370090;28;95844;-69
2023/06/09 09:06:02;;;;;;;;;;;22.40;57.10;;;;;;10375176;28;94522;-69
2023/06/09 09:11:04;;;;;;;;;;;22.30;57.10;;;;;;10375069;28;93857;-69
2023/06/09 09:16:10;;;;;;;;;;;22.30;57.20;;;;;;10373694;28;94501;-69
2023/06/09 09:21:22;;;;;;;;;;;22.30;57.30;;;;;;10374537;28;94424;-69
2023/06/09 09:26:28;;;;;;;;;;;22.30;57.40;;;;;;10372662;28;94458;-69
2023/06/09 09:31:39;;;;;;;;;;;22.30;57.40;;;;;;10373588;28;94035;-70
2023/06/09 09:36:41;;;;;;;;;;;22.30;57.40;;;;;;10373889;28;93671;-69
2023/06/09 09:42:02;;;;;;;;;;;22.30;57.40;;;;;;10373999;28;93458;-69
2023/06/09 09:47:04;;;;;;;;;;;22.20;57.20;;;;;;10373471;28;93675;-69
2023/06/09 09:52:06;;;;;;;;;;;22.20;57.20;;;;;;10371438;28;96857;-69
2023/06/09 09:57:08;;;;;;;;;;;22.30;57.20;;;;;;10371994;28;94534;-69
2023/06/09 10:02:14;;;;;;;;;;;22.30;57.10;;;;;;10370495;28;93536;-69
2023/06/09 10:07:17;;;;;;;;;;;22.40;57.10;;;;;;10373042;28;94612;-69
2023/06/09 10:12:19;;;;;;;;;;;22.40;57.00;;;;;;10371764;28;93552;-69
2023/06/09 10:17:22;;;;;;;;;;;22.40;57.00;;;;;;10372946;28;93484;-69
2023/06/09 10:22:24;;;;;;;;;;;22.50;56.90;;;;;;10372359;28;92567;-69
2023/06/09 10:27:26;;;;;;;;;;;22.50;56.80;;;;;;10371282;28;92849;-69
2023/06/09 10:32:29;;;;;;;;;;;22.60;56.80;;;;;;10372369;28;93488;-69
2023/06/09 10:37:31;;;;;;;;;;;22.60;56.70;;;;;;10372128;28;95366;-69
2023/06/09 10:42:52;;;;;;;;;;;22.60;56.70;;;;;;10368074;28;96235;-70
2023/06/09 10:47:54;;;;;;;;;;;22.60;56.70;;;;;;10370168;28;94448;-69
2023/06/09 10:52:57;;;;;;;;;;;22.70;56.70;;;;;;10369853;28;94717;-69
2023/06/09 10:57:58;;;;;;;;;;;22.70;56.70;;;;;;10371664;28;93531;-69
2023/06/09 11:03:06;;;;;;;;;;;22.70;56.60;;;;;;10371585;28;93010;-70
2023/06/09 11:08:08;;;;;;;;;;;22.70;56.70;;;;;;10370130;28;94427;-70
2023/06/09 11:13:42;;;;;;;;;;;22.70;56.80;;;;;;10371704;28;94506;-70
2023/06/09 11:18:44;;;;;;;;;;;22.70;56.70;;;;;;10326956;28;93841;-69
2023/06/09 11:24:02;;;;;;;;;;;22.70;56.70;;;;;;10370612;28;93390;-69
2023/06/09 11:29:16;;;;;;;;;;;22.70;56.80;;;;;;10370793;28;94486;-69
2023/06/09 11:34:36;;;;;;;;;;;22.70;56.80;;;;;;10367168;28;95365;-69
2023/06/09 11:39:38;;;;;;;;;;;22.70;56.80;;;;;;10370459;28;94086;-69
2023/06/09 11:44:40;;;;;;;;;;;22.70;56.80;;;;;;10367644;28;94428;-70
2023/06/09 11:49:41;;;;;;;;;;;22.70;56.90;;;;;;10369526;28;94386;-69
2023/06/09 11:54:45;;;;;;;;;;;22.70;57.00;;;;;;10368923;28;93750;-69
2023/06/09 11:59:47;;;;;;;;;;;22.70;57.00;;;;;;10370411;28;93481;-70
2023/06/09 12:04:50;;;;;;;;;;;22.70;57.10;;;;;;10368572;28;94620;-70
2023/06/09 12:09:55;;;;;;;;;;;22.70;57.10;;;;;;10369959;28;92948;-69
2023/06/09 12:14:57;;;;;;;;;;;22.70;57.20;;;;;;10369376;28;92734;-69
2023/06/09 12:20:18;;;;;;;;;;;22.70;57.20;;;;;;10368531;28;93533;-69
2023/06/09 12:25:20;;;;;;;;;;;22.70;57.30;;;;;;10365951;28;96669;-69
2023/06/09 12:30:40;;;;;;;;;;;22.70;57.30;;;;;;10368992;28;94421;-70
2023/06/09 12:35:43;;;;;;;;;;;22.70;57.30;;;;;;10369190;28;94463;-70
2023/06/09 12:40:46;;;;;;;;;;;22.70;57.30;;;;;;10368528;28;92533;-68
2023/06/09 12:45:49;;;;;;;;;;;22.70;57.30;;;;;;10368798;28;94661;-70
2023/06/09 12:50:51;;;;;;;;;;;22.70;57.40;;;;;;10367935;28;93480;-69
2023/06/09 12:55:53;;;;;;;;;;;22.70;57.50;;;;;;10372739;28;93433;-67
2023/06/09 13:00:55;;;;;;;;;;;22.80;58.10;;;;;;10377749;28;94665;-68
2023/06/09 13:05:56;;;;;;;;;;;22.80;59.70;;;;;;10374861;28;94693;-68
2023/06/09 13:10:58;;;;;;;;;;;22.90;60.30;;;;;;10375542;28;93342;-67
2023/06/09 13:16:00;;;;;;;;;;;22.90;60.50;;;;;;10372487;28;96882;-70
2023/06/09 13:21:02;;;;;;;;;;;23.00;60.60;;;;;;10356716;28;94161;-69
2023/06/09 13:26:04;;;;;;;;;;;23.00;60.60;;;;;;10374854;28;94453;-71
2023/06/09 13:31:06;;;;;;;;;;;23.00;60.60;;;;;;10375497;28;93417;-70
2023/06/09 13:36:07;;;;;;;;;;;23.00;60.60;;;;;;10374513;28;94435;-71
2023/06/09 13:41:09;;;;;;;;;;;23.00;59.90;;;;;;10375053;28;94779;-68
2023/06/09 13:46:12;;;;;;;;;;;23.10;58.70;;;;;;10374258;28;93428;-69
2023/06/09 13:51:14;;;;;;;;;;;23.30;57.80;;;;;;10374903;28;92720;-68
2023/06/09 13:56:19;;;;;;;;;;;23.30;56.90;;;;;;10372473;28;93589;-69
2023/06/09 14:01:21;;;;;;;;;;;23.50;56.90;;;;;;10373238;28;95097;-69
2023/06/09 14:06:25;;;;;;;;;;;23.80;59.60;;;;;;10369416;28;95863;-68
2023/06/09 14:11:27;;;;;;;;;;;24.10;56.50;;;;;;10373422;28;93648;-73
2023/06/09 14:16:29;;;;;;;;;;;24.40;56.60;;;;;;10371024;28;92600;-71
2023/06/09 14:21:31;;;;;;;;;;;24.60;58.80;;;;;;10399285;28;95323;-71
2023/06/09 14:26:32;;;;;;;;;;;24.70;57.50;;;;;;10394705;28;93432;-70
2023/06/09 14:31:34;;;;;;;;;;;24.80;54.70;;;;;;10398017;28;92506;-70
2023/06/09 14:36:37;;;;;;;;;;;24.90;55.70;;;;;;10397453;28;92999;-69
2023/06/09 14:41:38;;;;;;;;;;;25.00;56.10;;;;;;10398341;28;93359;-69
2023/06/09 14:46:40;;;;;;;;;;;25.10;54.60;;;;;;10397129;28;94821;-69
2023/06/09 14:51:42;;;;;;;;;;;25.10;55.60;;;;;;10413842;28;96331;-70
2023/06/09 14:56:44;;;;;;;;;;;25.20;54.70;;;;;;10410606;28;95929;-70
2023/06/09 15:01:48;;;;;;;;;;;25.20;53.40;;;;;;10412051;28;94499;-69
2023/06/09 15:06:50;;;;;;;;;;;25.30;52.80;;;;;;10413027;28;94503;-71
2023/06/09 15:11:52;;;;;;;;;;;25.30;52.00;;;;;;10394695;28;94173;-73
2023/06/09 15:16:54;;;;;;;;;;;25.30;53.00;;;;;;10393599;28;93921;-73
2023/06/09 15:21:56;;;;;;;;;;;25.30;53.60;;;;;;10411555;28;94460;-71
2023/06/09 15:27:16;;;;;;;;;;;25.40;50.40;;;;;;10405929;28;94450;-70
2023/06/09 15:32:18;;;;;;;;;;;25.40;50.70;;;;;;10371159;28;93447;-70
2023/06/09 15:37:19;;;;;;;;;;;25.40;50.30;;;;;;10368305;28;93556;-70
2023/06/09 15:42:21;;;;;;;;;;;25.40;50.10;;;;;;10368914;28;93538;-70
2023/06/09 15:47:27;;;;;;;;;;;25.30;50.10;;;;;;10367025;28;96552;-70
2023/06/09 15:52:29;;;;;;;;;;;25.20;48.90;;;;;;10369039;28;93416;-70
2023/06/09 15:57:31;;;;;;;;;;;25.10;49.10;;;;;;10370174;28;93437;-72
2023/06/09 16:02:33;;;;;;;;;;;25.00;48.90;;;;;;10373897;28;93575;-71
2023/06/09 16:07:34;;;;;;;;;;;25.10;50.30;;;;;;10410235;28;92528;-70
2023/06/09 16:12:36;;;;;;;;;;;25.10;50.70;;;;;;10411437;28;93480;-68
2023/06/09 16:17:38;;;;;;;;;;;25.10;50.80;;;;;;10410200;28;94348;-71
2023/06/09 16:22:40;;;;;;;;;;;25.10;51.10;;;;;;10412969;28;93790;-70
2023/06/09 16:27:43;;;;;;;;;;;25.10;52.80;;;;;;10392941;27;93594;-70
2023/06/09 16:32:45;;;;;;;;;;;25.10;51.60;;;;;;10417600;28;94578;-69
2023/06/09 16:37:48;;;;;;;;;;;25.10;51.00;;;;;;10414892;28;96338;-70
2023/06/09 16:42:53;;;;;;;;;;;25.10;51.70;;;;;;10399243;28;94754;-69
2023/06/09 16:47:55;;;;;;;;;;;25.10;50.80;;;;;;10415572;28;93523;-68
2023/06/09 16:52:57;;;;;;;;;;;25.10;50.90;;;;;;10416976;28;94426;-67
2023/06/09 16:57:59;;;;;;;;;;;25.00;51.30;;;;;;10416196;28;93448;-67
2023/06/09 17:03:03;;;;;;;;;;;25.10;51.00;;;;;;10416992;28;94230;-67
2023/06/09 17:08:04;;;;;;;;;;;25.10;50.30;;;;;;10416776;28;93504;-68
2023/06/09 17:13:06;;;;;;;;;;;25.10;50.20;;;;;;10418381;28;93862;-68
2023/06/09 17:18:08;;;;;;;;;;;25.10;50.30;;;;;;10416111;28;94612;-70
2023/06/09 17:23:10;;;;;;;;;;;25.10;50.60;;;;;;10415845;28;94484;-68
2023/06/09 17:28:12;;;;;;;;;;;25.00;50.80;;;;;;10413201;28;95951;-69
2023/06/09 17:33:16;;;;;;;;;;;25.00;51.60;;;;;;10415809;28;93469;-69
2023/06/09 17:38:17;;;;;;;;;;;24.90;52.00;;;;;;10416837;28;93782;-69
2023/06/09 17:43:19;;;;;;;;;;;24.90;52.50;;;;;;10413904;28;93551;-68
2023/06/09 17:48:21;;;;;;;;;;;24.80;52.80;;;;;;10414322;28;94411;-69
2023/06/09 17:53:23;;;;;;;;;;;24.80;53.20;;;;;;10397818;28;93712;-69
2023/06/09 17:58:25;;;;;;;;;;;24.80;53.40;;;;;;10396401;28;95247;-67
2023/06/09 18:03:26;;;;;;;;;;;24.80;53.60;;;;;;10415249;28;93779;-69
2023/06/09 18:08:28;;;;;;;;;;;24.80;53.70;;;;;;10414749;28;94496;-68
2023/06/09 18:13:30;;;;;;;;;;;24.80;53.90;;;;;;10414952;28;94433;-69
2023/06/09 18:18:32;;;;;;;;;;;24.80;54.00;;;;;;10394343;28;95866;-69
2023/06/09 18:23:34;;;;;;;;;;;24.80;54.00;;;;;;10395793;28;94546;-69
2023/06/09 18:28:36;;;;;;;;;;;24.80;54.20;;;;;;10414228;28;94576;-69
2023/06/09 18:33:37;;;;;;;;;;;24.80;54.20;;;;;;10413272;28;94422;-68
2023/06/09 18:38:39;;;;;;;;;;;24.90;54.30;;;;;;10414157;28;94475;-68
2023/06/09 18:43:41;;;;;;;;;;;24.80;54.30;;;;;;10413319;28;94518;-68
2023/06/09 18:48:43;;;;;;;;;;;24.80;54.50;;;;;;10414316;28;94591;-69
2023/06/09 18:54:02;;;;;;;;;;;24.70;54.60;;;;;;10412369;27;92726;-69
2023/06/09 18:59:03;;;;;;;;;;;24.70;54.70;;;;;;10414327;28;94487;-68
2023/06/09 19:04:05;;;;;;;;;;;24.60;54.90;;;;;;10412745;28;94627;-69
2023/06/09 19:09:08;;;;;;;;;;;24.60;55.10;;;;;;10392832;28;95871;-69
2023/06/09 19:14:10;;;;;;;;;;;24.50;55.10;;;;;;10413152;28;93500;-69
2023/06/09 19:19:12;;;;;;;;;;;24.50;56.60;;;;;;10411213;28;94123;-70
2023/06/09 19:24:14;;;;;;;;;;;24.60;58.00;;;;;;10412116;28;93769;-73
2023/06/09 19:29:16;;;;;;;;;;;24.60;56.00;;;;;;10411625;28;93673;-72
2023/06/09 19:34:18;;;;;;;;;;;24.50;54.00;;;;;;10413267;28;94578;-72
2023/06/09 19:39:22;;;;;;;;;;;24.40;53.40;;;;;;10411070;28;114093;-72
2023/06/09 19:44:25;;;;;;;;;;;24.40;52.80;;;;;;10411896;28;92918;-72
2023/06/09 19:49:26;;;;;;;;;;;24.30;52.40;;;;;;10411001;28;93409;-72
2023/06/09 19:54:28;;;;;;;;;;;24.20;52.80;;;;;;10410756;28;94115;-71
2023/06/09 19:59:31;;;;;;;;;;;24.20;52.30;;;;;;10409552;28;96972;-72
2023/06/09 20:04:33;;;;;;;;;;;24.10;52.60;;;;;;10409514;28;93607;-72
2023/06/09 20:09:35;;;;;;;;;;;24.10;52.70;;;;;;10410391;28;93316;-72
2023/06/09 20:14:37;;;;;;;;;;;24.00;52.30;;;;;;10392519;28;93657;-72
2023/06/09 20:19:39;;;;;;;;;;;24.00;52.50;;;;;;10409673;28;93513;-72
2023/06/09 20:24:41;;;;;;;;;;;24.00;52.80;;;;;;10393072;28;94436;-72
2023/06/09 20:29:43;;;;;;;;;;;23.90;52.60;;;;;;10408973;28;93546;-71
2023/06/09 20:34:45;;;;;;;;;;;23.80;52.60;;;;;;10411916;28;96765;-71
2023/06/09 20:39:47;;;;;;;;;;;23.80;53.10;;;;;;10408718;28;93513;-72
2023/06/09 20:44:50;;;;;;;;;;;23.80;53.40;;;;;;10409173;28;93500;-71
2023/06/09 20:49:52;;;;;;;;;;;23.80;53.70;;;;;;10406666;28;96987;-71
2023/06/09 20:54:54;;;;;;;;;;;23.80;54.80;;;;;;10408734;28;94418;-72
2023/06/09 20:59:56;;;;;;;;;;;23.80;53.90;;;;;;10391898;28;93656;-72
2023/06/09 21:04:58;;;;;;;;;;;23.80;53.90;;;;;;10391551;28;93446;-72
2023/06/09 21:10:00;;;;;;;;;;;23.80;54.00;;;;;;10410114;28;94051;-71
2023/06/09 21:15:02;;;;;;;;;;;23.80;54.00;;;;;;10376644;27;94429;-72
2023/06/09 21:20:12;;;;;;;;;;;23.80;54.10;;;;;;10415876;28;92909;-72
2023/06/09 21:25:14;;;;;;;;;;;23.80;54.10;;;;;;10399857;28;92105;-72
2023/06/09 21:30:16;;;;;;;;;;;23.80;54.20;;;;;;10415836;28;93502;-72
2023/06/09 21:35:18;;;;;;;;;;;23.80;54.20;;;;;;10416182;28;94275;-72
2023/06/09 21:40:20;;;;;;;;;;;23.80;54.20;;;;;;10412837;28;96812;-73
2023/06/09 21:45:23;;;;;;;;;;;23.80;54.20;;;;;;10416066;28;93486;-70
2023/06/09 21:50:24;;;;;;;;;;;23.80;54.20;;;;;;10416243;28;93705;-72
2023/06/09 21:55:26;;;;;;;;;;;23.80;54.20;;;;;;10398406;28;94322;-71
2023/06/09 22:00:30;;;;;;;;;;;23.80;54.20;;;;;;10415544;28;94456;-71
2023/06/09 22:05:32;;;;;;;;;;;23.80;54.30;;;;;;10397634;28;93212;-71
2023/06/09 22:10:34;;;;;;;;;;;23.80;54.20;;;;;;10414417;28;93449;-72
2023/06/09 22:15:37;;;;;;;;;;;23.80;54.20;;;;;;10416225;28;93808;-71
2023/06/09 22:20:38;;;;;;;;;;;23.80;54.30;;;;;;10396972;28;94562;-71
2023/06/09 22:25:41;;;;;;;;;;;23.80;54.20;;;;;;10413002;28;94451;-72
2023/06/09 22:30:43;;;;;;;;;;;23.80;54.20;;;;;;10412537;28;95802;-72
2023/06/09 22:35:44;;;;;;;;;;;23.70;54.20;;;;;;10413153;28;93665;-72
2023/06/09 22:40:46;;;;;;;;;;;23.70;54.20;;;;;;10413799;28;94650;-71
2023/06/09 22:45:49;;;;;;;;;;;23.70;55.30;;;;;;10414241;28;94633;-71
2023/06/09 22:50:51;;;;;;;;;;;23.70;54.20;;;;;;10412405;28;93572;-71
2023/06/09 22:55:53;;;;;;;;;;;23.70;54.20;;;;;;10413034;28;94554;-71
2023/06/09 23:00:56;;;;;;;;;;;23.60;54.20;;;;;;10412882;28;94463;-72
2023/06/09 23:05:58;;;;;;;;;;;23.70;54.20;;;;;;10413794;28;93668;-71
2023/06/09 23:11:00;;;;;;;;;;;23.60;54.10;;;;;;10411143;28;93440;-71
2023/06/09 23:16:02;;;;;;;;;;;23.60;54.10;;;;;;10413450;28;93785;-72
2023/06/09 23:21:04;;;;;;;;;;;23.60;54.10;;;;;;10392566;28;96227;-71
2023/06/09 23:26:06;;;;;;;;;;;23.60;54.00;;;;;;10411908;28;93308;-72
2023/06/09 23:31:07;;;;;;;;;;;23.60;54.00;;;;;;10393216;28;94496;-72
2023/06/09 23:36:11;;;;;;;;;;;23.50;54.00;;;;;;10411624;28;93457;-71
2023/06/09 23:41:13;;;;;;;;;;;23.50;54.00;;;;;;10411744;28;94509;-71
2023/06/09 23:46:15;;;;;;;;;;;23.50;53.90;;;;;;10412853;28;94477;-72
2023/06/09 23:51:17;;;;;;;;;;;23.50;54.00;;;;;;10410742;28;93894;-71
2023/06/09 23:56:19;;;;;;;;;;;23.50;54.00;;;;;;10411302;28;92747;-71
